Time;durP1;ratioP1;P1;durP2;ratioP2;P2;SDS_P1;SDS_P2;PMS_P1;PMS_P2;Temp;Humidity;BMP_temperature;BMP_pressure;BME280_temperature;BME280_humidity;BME280_pressure;Samples;Min_cycle;Max_cycle;Signal;HPM_P1;HPM_P2
2021/11/21 00:01:56;;;;;;;15.10;8.65;;;9.60;99.90;;;;;;5067419;28;20060;-68
2021/11/21 00:04:22;;;;;;;17.23;8.95;;;9.50;99.90;;;;;;5066789;28;20044;-68
2021/11/21 00:06:47;;;;;;;18.02;9.73;;;9.60;99.90;;;;;;5067692;28;20097;-68
2021/11/21 00:09:13;;;;;;;13.68;8.75;;;9.50;99.90;;;;;;5063424;28;20393;-68
2021/11/21 00:11:39;;;;;;;16.13;9.65;;;9.60;99.90;;;;;;5067220;28;20036;-69
2021/11/21 00:14:06;;;;;;;15.07;9.13;;;9.50;99.90;;;;;;5067556;28;20040;-68
2021/11/21 00:16:34;;;;;;;21.58;10.40;;;9.60;99.90;;;;;;5063909;28;20410;-68
2021/11/21 00:18:59;;;;;;;16.15;9.80;;;9.50;99.90;;;;;;5061786;28;20048;-68
2021/11/21 00:21:25;;;;;;;16.25;10.88;;;9.50;99.90;;;;;;5066053;28;20040;-68
2021/11/21 00:23:51;;;;;;;18.67;10.57;;;9.50;99.90;;;;;;5066027;28;20036;-68
2021/11/21 00:26:17;;;;;;;18.38;10.63;;;9.50;99.90;;;;;;5064322;28;20054;-69
2021/11/21 00:28:43;;;;;;;18.23;10.40;;;9.50;99.90;;;;;;5064706;28;20062;-68
2021/11/21 00:31:09;;;;;;;20.50;11.73;;;9.50;99.90;;;;;;5059710;28;20048;-68
2021/11/21 00:33:35;;;;;;;18.02;11.10;;;9.50;99.90;;;;;;5067870;28;20039;-68
2021/11/21 00:36:01;;;;;;;20.75;11.52;;;9.50;99.90;;;;;;5068042;28;20490;-68
2021/11/21 00:38:26;;;;;;;16.73;11.85;;;9.50;99.90;;;;;;5064539;28;20498;-68
2021/11/21 00:40:52;;;;;;;26.98;13.77;;;9.50;99.90;;;;;;5064860;28;20171;-68
2021/11/21 00:43:20;;;;;;;19.65;12.63;;;9.50;99.90;;;;;;5066093;28;20499;-68
2021/11/21 00:45:47;;;;;;;19.58;12.63;;;9.50;99.90;;;;;;5095573;28;20063;-68
2021/11/21 00:48:19;;;;;;;19.55;13.50;;;9.50;99.90;;;;;;5063755;28;20040;-68
2021/11/21 00:50:45;;;;;;;25.40;13.73;;;9.50;99.90;;;;;;5063067;28;20055;-68
2021/11/21 00:53:11;;;;;;;20.40;12.80;;;9.50;99.90;;;;;;5062510;28;20540;-68
2021/11/21 00:55:46;;;;;;;22.77;13.38;;;9.50;99.90;;;;;;5060919;28;20048;-68
2021/11/21 00:58:12;;;;;;;18.77;13.20;;;9.50;99.90;;;;;;5059206;28;20048;-68
2021/11/21 01:00:44;;;;;;;23.52;13.40;;;9.50;99.90;;;;;;5058042;28;20341;-68
2021/11/21 01:03:13;;;;;;;20.27;12.95;;;9.50;99.90;;;;;;5061887;28;20119;-68
2021/11/21 01:05:41;;;;;;;24.58;13.77;;;9.40;99.90;;;;;;5061166;28;20040;-68
2021/11/21 01:08:07;;;;;;;20.75;12.40;;;9.50;99.90;;;;;;5061533;28;20319;-68
2021/11/21 01:10:33;;;;;;;20.17;13.43;;;9.40;99.90;;;;;;5062014;28;20059;-68
2021/11/21 01:12:59;;;;;;;19.83;13.63;;;9.50;99.90;;;;;;5060040;28;20128;-68
2021/11/21 01:15:25;;;;;;;19.63;14.93;;;9.50;99.90;;;;;;5060445;28;20049;-68
2021/11/21 01:17:52;;;;;;;23.25;15.05;;;9.50;99.90;;;;;;5059595;28;20052;-68
2021/11/21 01:20:19;;;;;;;25.40;14.93;;;9.40;99.90;;;;;;5058020;28;20036;-68
2021/11/21 01:22:45;;;;;;;27.83;14.63;;;9.50;99.90;;;;;;5076154;28;20076;-68
2021/11/21 01:25:12;;;;;;;20.80;14.25;;;9.50;99.90;;;;;;5058082;28;21706;-68
2021/11/21 01:27:39;;;;;;;24.40;14.32;;;9.40;99.90;;;;;;5092748;28;20105;-68
2021/11/21 01:30:08;;;;;;;22.55;15.00;;;9.40;99.90;;;;;;5061922;28;20115;-68
2021/11/21 01:32:34;;;;;;;21.33;15.10;;;9.40;99.90;;;;;;5060002;28;20044;-68
2021/11/21 01:35:00;;;;;;;17.17;13.82;;;9.50;99.90;;;;;;5057750;28;20048;-68
2021/11/21 01:37:26;;;;;;;19.67;13.00;;;9.50;99.90;;;;;;5057750;28;20045;-68
2021/11/21 01:39:51;;;;;;;21.45;14.80;;;9.40;99.90;;;;;;5057061;28;20036;-68
2021/11/21 01:42:18;;;;;;;19.50;14.13;;;9.50;99.90;;;;;;5060795;28;20044;-68
2021/11/21 01:44:43;;;;;;;17.70;14.10;;;9.50;99.90;;;;;;5059701;28;20139;-68
2021/11/21 01:47:09;;;;;;;23.15;14.63;;;9.50;99.90;;;;;;5059098;28;20052;-68
2021/11/21 01:49:35;;;;;;;16.77;13.15;;;9.40;99.90;;;;;;5056967;28;20028;-68
2021/11/21 01:52:02;;;;;;;18.92;14.27;;;9.40;99.90;;;;;;5058749;28;20036;-68
2021/11/21 01:54:27;;;;;;;19.10;14.30;;;9.40;99.90;;;;;;5062834;28;20187;-68
2021/11/21 01:56:53;;;;;;;18.75;14.40;;;9.50;99.90;;;;;;5057864;28;20546;-68
2021/11/21 01:59:19;;;;;;;20.13;14.38;;;9.50;99.90;;;;;;5058612;28;20093;-68
2021/11/21 02:01:45;;;;;;;21.42;14.70;;;9.50;99.90;;;;;;5059289;28;20379;-68
2021/11/21 02:04:11;;;;;;;17.55;13.68;;;9.50;99.90;;;;;;5060729;28;20093;-68
2021/11/21 02:06:37;;;;;;;19.95;13.65;;;9.50;99.90;;;;;;5058721;28;20453;-68
2021/11/21 02:09:04;;;;;;;18.45;14.30;;;9.50;99.90;;;;;;5058197;28;20044;-68
2021/11/21 02:11:30;;;;;;;24.33;14.90;;;9.50;99.90;;;;;;5059106;28;20130;-68
2021/11/21 02:13:56;;;;;;;28.50;15.23;;;9.50;99.90;;;;;;5061810;28;20033;-68
2021/11/21 02:16:25;;;;;;;21.27;15.48;;;9.50;99.90;;;;;;5060036;28;20394;-68
2021/11/21 02:18:51;;;;;;;20.10;14.75;;;9.50;99.90;;;;;;5060537;28;20040;-68
2021/11/21 02:21:18;;;;;;;23.88;15.85;;;9.50;99.90;;;;;;5057591;28;20094;-68
2021/11/21 02:23:45;;;;;;;29.00;16.88;;;9.50;99.90;;;;;;5060451;28;20167;-68
2021/11/21 02:26:13;;;;;;;20.60;15.07;;;9.50;99.90;;;;;;5059977;28;20511;-69
2021/11/21 02:28:40;;;;;;;25.60;15.40;;;9.60;99.90;;;;;;5061014;28;20128;-68
2021/11/21 02:31:06;;;;;;;20.95;13.52;;;9.50;99.90;;;;;;5044103;28;20043;-68
2021/11/21 02:33:32;;;;;;;18.30;12.20;;;9.60;99.90;;;;;;5064782;28;20977;-68
2021/11/21 02:35:59;;;;;;;17.00;12.48;;;9.60;99.90;;;;;;5063549;28;20099;-68
2021/11/21 02:38:27;;;;;;;17.10;11.90;;;9.60;99.90;;;;;;5060305;28;20048;-68
2021/11/21 02:40:54;;;;;;;19.05;12.25;;;9.60;99.90;;;;;;5058544;28;20040;-68
2021/11/21 02:43:21;;;;;;;13.40;9.82;;;9.60;99.90;;;;;;5061910;28;20076;-68
2021/11/21 02:45:49;;;;;;;14.35;10.50;;;9.60;99.90;;;;;;5061559;28;20033;-68
2021/11/21 02:48:17;;;;;;;11.48;9.13;;;9.60;99.90;;;;;;5061535;28;20048;-68
2021/11/21 02:50:43;;;;;;;10.77;8.48;;;9.60;99.90;;;;;;5061681;28;20454;-68
2021/11/21 02:53:10;;;;;;;14.73;8.90;;;9.60;99.90;;;;;;5062702;28;20056;-68
2021/11/21 02:55:35;;;;;;;12.43;8.25;;;9.70;99.90;;;;;;5062122;28;20040;-68
2021/11/21 02:58:02;;;;;;;11.32;6.88;;;9.70;99.90;;;;;;5061788;28;20040;-69
2021/11/21 03:00:29;;;;;;;7.32;5.63;;;9.70;99.90;;;;;;5090706;28;20079;-68
2021/11/21 03:02:55;;;;;;;7.18;5.57;;;9.70;99.90;;;;;;5093360;28;20060;-68
2021/11/21 03:05:21;;;;;;;4.90;3.95;;;9.70;99.90;;;;;;5059758;28;20137;-68
2021/11/21 03:07:48;;;;;;;6.15;3.90;;;9.80;99.90;;;;;;5063902;28;20142;-68
2021/11/21 03:10:18;;;;;;;6.90;4.70;;;9.80;99.90;;;;;;5061769;28;20395;-68
2021/11/21 03:12:48;;;;;;;6.72;4.10;;;9.80;99.90;;;;;;5092243;28;20201;-68
2021/11/21 03:15:14;;;;;;;6.60;3.88;;;9.80;99.90;;;;;;5062163;28;20052;-68
2021/11/21 03:17:43;;;;;;;4.70;3.70;;;9.80;99.90;;;;;;5060642;28;20037;-69
2021/11/21 03:20:10;;;;;;;5.90;3.25;;;9.80;99.90;;;;;;5062118;28;20049;-68
2021/11/21 03:22:36;;;;;;;7.63;3.50;;;9.80;99.90;;;;;;5060469;28;20045;-68
2021/11/21 03:25:02;;;;;;;5.28;3.80;;;9.80;99.90;;;;;;5061932;28;20047;-68
2021/11/21 03:27:28;;;;;;;4.53;3.67;;;9.80;99.90;;;;;;5060956;28;20498;-68
2021/11/21 03:29:53;;;;;;;7.07;3.95;;;9.80;99.90;;;;;;5058829;28;20081;-68
2021/11/21 03:32:19;;;;;;;7.45;3.67;;;9.80;99.90;;;;;;5062444;28;20036;-68
2021/11/21 03:34:46;;;;;;;5.95;3.75;;;9.70;99.90;;;;;;5063748;28;20074;-68
2021/11/21 03:37:12;;;;;;;10.65;3.58;;;9.80;99.90;;;;;;5094230;28;20070;-68
2021/11/21 03:39:38;;;;;;;7.82;3.38;;;9.70;99.90;;;;;;5058306;28;20094;-68
2021/11/21 03:42:05;;;;;;;10.02;3.85;;;9.70;99.90;;;;;;5096997;28;20056;-69
2021/11/21 03:44:31;;;;;;;5.45;2.92;;;9.80;99.90;;;;;;5062455;28;20469;-69
2021/11/21 03:46:56;;;;;;;6.03;2.63;;;9.70;99.90;;;;;;5060550;28;20107;-68
2021/11/21 03:49:22;;;;;;;7.40;3.05;;;9.70;99.90;;;;;;5060051;28;20032;-68
2021/11/21 03:51:48;;;;;;;11.57;2.85;;;9.80;99.90;;;;;;5092124;28;20044;-69
2021/11/21 03:54:13;;;;;;;3.97;2.25;;;9.80;99.90;;;;;;5059302;28;20029;-68
2021/11/21 03:56:40;;;;;;;7.95;3.17;;;9.70;99.90;;;;;;5060475;28;20058;-68
2021/11/21 03:59:06;;;;;;;5.78;2.60;;;9.70;99.90;;;;;;5061132;28;21158;-68
2021/11/21 04:01:32;;;;;;;6.28;2.75;;;9.80;99.90;;;;;;5062819;28;20094;-68
2021/11/21 04:03:59;;;;;;;4.93;2.67;;;9.70;99.90;;;;;;5061003;28;20072;-68
2021/11/21 04:06:25;;;;;;;8.32;2.92;;;9.70;99.90;;;;;;5065765;28;20124;-68
2021/11/21 04:08:51;;;;;;;8.98;3.05;;;9.70;99.90;;;;;;5059642;28;20517;-68
2021/11/21 04:11:17;;;;;;;4.53;2.22;;;9.70;99.90;;;;;;5061235;28;20052;-69
2021/11/21 04:13:42;;;;;;;4.43;2.78;;;9.70;99.90;;;;;;5044020;28;20048;-69
2021/11/21 04:16:08;;;;;;;10.43;3.65;;;9.70;99.90;;;;;;5059810;28;20070;-69
2021/11/21 04:18:34;;;;;;;11.85;3.13;;;9.70;99.90;;;;;;5058524;28;20048;-69
2021/11/21 04:21:01;;;;;;;10.18;2.85;;;9.70;99.90;;;;;;5054247;28;20047;-69
2021/11/21 04:23:30;;;;;;;7.03;2.55;;;9.60;99.90;;;;;;5061264;28;20521;-69
2021/11/21 04:25:56;;;;;;;9.85;2.88;;;9.70;99.90;;;;;;5060535;28;20399;-69
2021/11/21 04:28:22;;;;;;;6.38;2.10;;;9.70;99.90;;;;;;5062825;28;20094;-68
2021/11/21 04:30:48;;;;;;;7.93;2.22;;;9.70;99.90;;;;;;5062372;28;20044;-69
2021/11/21 04:33:14;;;;;;;6.63;2.10;;;9.70;99.90;;;;;;5061486;28;20032;-68
2021/11/21 04:35:39;;;;;;;5.68;1.98;;;9.60;99.90;;;;;;5063669;28;20047;-68
2021/11/21 04:38:05;;;;;;;11.13;2.05;;;9.60;99.90;;;;;;5067325;28;20055;-69
2021/11/21 04:40:31;;;;;;;7.63;2.42;;;9.60;99.90;;;;;;5062756;28;20049;-69
2021/11/21 04:42:56;;;;;;;5.85;2.22;;;9.60;99.90;;;;;;5096830;28;20126;-69
2021/11/21 04:45:22;;;;;;;8.73;1.70;;;9.70;99.90;;;;;;5064208;28;20114;-68
2021/11/21 04:47:48;;;;;;;7.40;1.40;;;9.60;99.90;;;;;;5064858;28;20044;-69
2021/11/21 04:50:15;;;;;;;7.57;1.08;;;9.60;99.90;;;;;;5095733;28;20483;-69
2021/11/21 04:52:41;;;;;;;9.20;1.42;;;9.60;99.90;;;;;;5062334;28;20055;-69
2021/11/21 04:55:08;;;;;;;11.15;1.40;;;9.60;99.90;;;;;;5062405;28;20037;-69
2021/11/21 04:57:38;;;;;;;8.02;1.50;;;9.50;99.90;;;;;;5063897;28;20387;-69
2021/11/21 05:00:06;;;;;;;12.50;1.45;;;9.50;99.90;;;;;;5049687;28;20111;-69
2021/11/21 05:02:32;;;;;;;9.60;1.33;;;9.50;99.90;;;;;;5063851;28;20132;-68
2021/11/21 05:04:58;;;;;;;9.98;1.00;;;9.50;99.90;;;;;;5067197;28;20116;-69
2021/11/21 05:07:23;;;;;;;8.80;0.90;;;9.50;99.90;;;;;;5065218;28;20406;-69
2021/11/21 05:09:49;;;;;;;7.65;0.88;;;9.50;99.90;;;;;;5059208;28;20038;-68
2021/11/21 05:12:15;;;;;;;11.27;1.30;;;9.40;99.90;;;;;;5061772;28;20050;-69
2021/11/21 05:14:41;;;;;;;12.07;1.48;;;9.40;99.90;;;;;;5060250;28;20041;-69
2021/11/21 05:17:06;;;;;;;7.05;0.85;;;9.40;99.90;;;;;;5059993;28;20042;-69
2021/11/21 05:19:32;;;;;;;8.18;0.85;;;9.40;99.90;;;;;;5060699;28;20114;-69
2021/11/21 05:21:57;;;;;;;13.68;1.08;;;9.40;99.90;;;;;;5060072;28;20036;-69
2021/11/21 05:24:24;;;;;;;9.88;0.77;;;9.30;99.90;;;;;;5094834;27;20445;-69
2021/11/21 05:26:51;;;;;;;8.82;0.85;;;9.30;99.90;;;;;;5092990;27;20090;-69
2021/11/21 05:29:17;;;;;;;13.98;1.95;;;9.30;99.90;;;;;;5058291;28;20052;-69
2021/11/21 05:31:43;;;;;;;9.02;1.25;;;9.30;99.90;;;;;;5056638;28;20044;-69
2021/11/21 05:34:09;;;;;;;12.70;0.90;;;9.30;99.90;;;;;;5057500;28;20071;-68
2021/11/21 05:36:35;;;;;;;11.80;1.00;;;9.30;99.90;;;;;;5061264;28;20048;-69
2021/11/21 05:39:00;;;;;;;12.85;0.80;;;9.30;99.90;;;;;;5057074;28;20502;-69
2021/11/21 05:41:26;;;;;;;7.55;1.08;;;9.20;99.90;;;;;;5060608;28;20041;-69
2021/11/21 05:43:52;;;;;;;14.13;1.42;;;9.20;99.90;;;;;;5058763;28;20471;-69
2021/11/21 05:46:17;;;;;;;12.63;1.35;;;9.30;99.90;;;;;;5060791;28;20097;-69
2021/11/21 05:48:43;;;;;;;17.55;2.08;;;9.20;99.90;;;;;;5060498;28;20040;-69
2021/11/21 05:51:09;;;;;;;13.63;0.93;;;9.20;99.90;;;;;;5061374;28;20029;-69
2021/11/21 05:53:34;;;;;;;14.80;1.92;;;9.20;99.90;;;;;;5062026;28;20033;-69
2021/11/21 05:56:00;;;;;;;11.98;1.42;;;9.20;99.90;;;;;;5062071;28;20116;-69
2021/11/21 05:58:26;;;;;;;10.55;1.52;;;9.20;99.90;;;;;;5061122;28;20044;-69
2021/11/21 06:00:52;;;;;;;13.05;1.65;;;9.10;99.90;;;;;;5059868;28;20903;-69
2021/11/21 06:03:18;;;;;;;11.65;1.83;;;9.10;99.90;;;;;;5061244;28;20033;-69
2021/11/21 06:05:44;;;;;;;10.07;1.17;;;9.00;99.90;;;;;;5060830;28;20064;-69
2021/11/21 06:08:10;;;;;;;16.17;1.45;;;9.10;99.90;;;;;;5092315;28;20131;-68
2021/11/21 06:10:36;;;;;;;14.32;1.55;;;9.10;99.90;;;;;;5060483;28;20032;-69
2021/11/21 06:13:02;;;;;;;19.10;1.77;;;9.10;99.90;;;;;;5058574;28;20040;-69
2021/11/21 06:15:27;;;;;;;14.65;1.60;;;9.00;99.90;;;;;;5060939;28;20041;-69
2021/11/21 06:17:53;;;;;;;11.52;1.33;;;9.00;99.90;;;;;;5058551;28;20153;-69
2021/11/21 06:20:19;;;;;;;12.90;1.60;;;9.00;99.90;;;;;;5056266;28;20127;-69
2021/11/21 06:22:44;;;;;;;12.45;2.30;;;8.90;99.90;;;;;;5093509;28;20376;-69
2021/11/21 06:25:11;;;;;;;12.80;1.02;;;8.90;99.90;;;;;;5059779;28;20498;-69
2021/11/21 06:27:37;;;;;;;15.52;1.30;;;8.90;99.90;;;;;;5059529;28;20048;-69
2021/11/21 06:30:05;;;;;;;15.77;1.63;;;8.80;99.90;;;;;;5091272;28;20055;-68
2021/11/21 06:32:30;;;;;;;12.63;1.42;;;8.80;99.90;;;;;;5061605;28;20075;-69
2021/11/21 06:34:56;;;;;;;13.93;1.42;;;8.70;99.90;;;;;;5060046;28;20064;-69
2021/11/21 06:37:22;;;;;;;13.73;1.40;;;8.70;99.90;;;;;;5061992;28;20090;-69
2021/11/21 06:39:47;;;;;;;13.43;1.30;;;8.60;99.90;;;;;;5059768;28;20040;-69
2021/11/21 06:42:13;;;;;;;15.57;1.27;;;8.60;99.90;;;;;;5057108;28;20113;-69
2021/11/21 06:44:40;;;;;;;10.40;1.67;;;8.50;99.90;;;;;;5059039;28;20067;-69
2021/11/21 06:47:06;;;;;;;11.75;1.00;;;8.50;99.90;;;;;;5057788;28;20063;-69
2021/11/21 06:49:32;;;;;;;14.20;1.13;;;8.40;99.90;;;;;;5091179;28;20044;-69
2021/11/21 06:51:57;;;;;;;14.85;2.13;;;8.40;99.90;;;;;;5057987;28;20044;-69
2021/11/21 06:54:24;;;;;;;12.85;1.20;;;8.40;99.90;;;;;;5077467;28;20131;-69
2021/11/21 06:56:49;;;;;;;12.43;1.10;;;8.30;99.90;;;;;;5059658;28;20036;-68
2021/11/21 06:59:15;;;;;;;12.23;1.52;;;8.30;99.90;;;;;;5055574;28;20048;-69
2021/11/21 07:01:41;;;;;;;9.50;0.90;;;8.20;99.90;;;;;;5060547;28;20190;-69
2021/11/21 07:04:08;;;;;;;9.05;1.45;;;8.10;99.90;;;;;;5094283;28;20051;-69
2021/11/21 07:06:42;;;;;;;19.73;1.70;;;8.10;99.90;;;;;;5058566;28;20045;-69
2021/11/21 07:09:11;;;;;;;8.70;1.05;;;8.00;99.90;;;;;;5055291;28;20090;-69
2021/11/21 07:11:38;;;;;;;16.70;1.35;;;7.90;99.90;;;;;;5056196;28;20044;-69
2021/11/21 07:14:04;;;;;;;15.52;1.38;;;7.90;99.90;;;;;;5062636;28;20089;-69
2021/11/21 07:16:30;;;;;;;13.73;1.85;;;7.90;99.90;;;;;;5058681;28;20048;-69
2021/11/21 07:18:56;;;;;;;11.30;1.05;;;7.80;99.90;;;;;;5060257;28;20044;-69
2021/11/21 07:21:22;;;;;;;9.30;0.95;;;7.80;99.90;;;;;;5059392;28;20131;-69
2021/11/21 07:23:48;;;;;;;13.18;1.63;;;7.70;99.90;;;;;;5061046;28;20045;-69
2021/11/21 07:26:14;;;;;;;8.43;0.85;;;7.70;99.90;;;;;;5057378;28;20033;-69
2021/11/21 07:28:40;;;;;;;11.07;1.20;;;7.70;99.90;;;;;;5061136;28;20033;-69
2021/11/21 07:31:07;;;;;;;12.65;1.40;;;7.60;99.90;;;;;;5061473;28;20037;-69
2021/11/21 07:33:32;;;;;;;8.95;1.55;;;7.60;99.90;;;;;;5060770;28;20108;-69
2021/11/21 07:35:58;;;;;;;17.80;1.58;;;7.60;99.90;;;;;;5063255;28;20044;-69
2021/11/21 07:38:24;;;;;;;11.60;1.27;;;7.60;99.90;;;;;;5059265;28;20053;-69
2021/11/21 07:40:52;;;;;;;18.67;1.45;;;7.50;99.90;;;;;;5058522;28;20051;-69
2021/11/21 07:43:18;;;;;;;18.15;2.60;;;7.50;99.90;;;;;;5058332;28;20082;-69
2021/11/21 07:45:44;;;;;;;12.65;1.42;;;7.50;99.90;;;;;;5062280;28;20036;-68
2021/11/21 07:48:10;;;;;;;26.75;1.67;;;7.50;99.90;;;;;;5053713;28;20044;-69
2021/11/21 07:50:36;;;;;;;17.05;1.33;;;7.40;99.90;;;;;;5057066;28;20032;-69
2021/11/21 07:53:01;;;;;;;10.93;0.90;;;7.40;99.90;;;;;;5060752;28;20393;-69
2021/11/21 07:55:27;;;;;;;17.40;2.95;;;7.40;99.90;;;;;;5061036;28;20063;-69
2021/11/21 07:57:53;;;;;;;17.27;2.33;;;7.40;99.90;;;;;;5057604;28;20044;-69
2021/11/21 08:00:18;;;;;;;31.88;2.10;;;7.40;99.90;;;;;;5058175;28;20119;-68
2021/11/21 08:02:44;;;;;;;37.65;3.08;;;7.40;99.90;;;;;;5060247;28;20502;-69
2021/11/21 08:05:10;;;;;;;17.30;1.42;;;7.30;99.90;;;;;;5058976;28;20083;-69
2021/11/21 08:07:37;;;;;;;10.60;1.35;;;7.40;99.90;;;;;;5055858;28;20047;-69
2021/11/21 08:10:04;;;;;;;19.42;1.85;;;7.30;99.90;;;;;;5061026;28;20110;-69
2021/11/21 08:12:30;;;;;;;21.00;1.75;;;7.30;99.90;;;;;;5059111;28;20044;-69
2021/11/21 08:14:56;;;;;;;13.15;1.35;;;7.30;99.90;;;;;;5063464;28;20451;-69
2021/11/21 08:17:22;;;;;;;17.13;2.03;;;7.40;99.90;;;;;;5060171;28;20048;-70
2021/11/21 08:19:48;;;;;;;17.33;1.90;;;7.40;99.90;;;;;;5062663;28;20135;-69
2021/11/21 08:22:13;;;;;;;13.48;1.10;;;7.30;99.90;;;;;;5064267;28;20067;-70
2021/11/21 08:24:39;;;;;;;17.48;1.65;;;7.30;99.90;;;;;;5061661;28;20048;-70
2021/11/21 08:27:05;;;;;;;16.63;1.50;;;7.40;99.90;;;;;;5061866;28;20079;-67
2021/11/21 08:29:31;;;;;;;15.25;1.67;;;7.40;99.90;;;;;;5091286;28;20520;-67
2021/11/21 08:31:58;;;;;;;13.23;1.33;;;7.40;99.90;;;;;;5062413;28;20032;-67
2021/11/21 08:34:24;;;;;;;13.68;1.52;;;7.40;99.90;;;;;;5062901;28;20040;-67
2021/11/21 08:36:50;;;;;;;17.08;1.42;;;7.40;99.90;;;;;;5060481;28;20036;-67
2021/11/21 08:39:16;;;;;;;13.32;1.70;;;7.50;99.90;;;;;;5074996;28;20068;-67
2021/11/21 08:41:42;;;;;;;17.40;2.22;;;7.50;99.90;;;;;;5059717;28;20033;-67
2021/11/21 08:44:08;;;;;;;15.18;1.00;;;7.50;99.90;;;;;;5061580;28;20053;-67
2021/11/21 08:46:34;;;;;;;18.63;1.90;;;7.50;99.90;;;;;;5061442;28;20037;-67
2021/11/21 08:49:00;;;;;;;11.02;1.15;;;7.60;99.90;;;;;;5060707;28;20058;-67
2021/11/21 08:51:26;;;;;;;19.08;2.15;;;7.60;99.90;;;;;;5060822;28;20043;-67
2021/11/21 08:53:51;;;;;;;12.40;1.60;;;7.60;99.90;;;;;;5062073;28;20063;-67
2021/11/21 08:56:17;;;;;;;19.10;1.83;;;7.60;99.90;;;;;;5059490;28;20036;-67
2021/11/21 08:58:43;;;;;;;15.00;2.45;;;7.60;99.90;;;;;;5063248;28;20458;-68
2021/11/21 09:01:09;;;;;;;13.68;1.58;;;7.60;99.90;;;;;;5059498;28;20118;-67
2021/11/21 09:03:35;;;;;;;17.13;1.50;;;7.70;99.90;;;;;;5058362;28;20040;-67
2021/11/21 09:06:02;;;;;;;13.63;2.05;;;7.80;99.90;;;;;;5058989;28;20498;-67
2021/11/21 09:08:27;;;;;;;13.25;2.53;;;7.80;99.90;;;;;;5059906;28;20825;-67
2021/11/21 09:10:54;;;;;;;8.93;1.20;;;7.90;99.90;;;;;;5060159;28;20072;-67
2021/11/21 09:13:20;;;;;;;16.13;1.48;;;7.90;99.90;;;;;;5058251;28;20513;-67
2021/11/21 09:15:47;;;;;;;12.63;1.50;;;8.00;99.90;;;;;;5059287;28;20091;-67
2021/11/21 09:18:13;;;;;;;11.75;1.45;;;8.00;99.90;;;;;;5044072;28;20048;-69
2021/11/21 09:20:40;;;;;;;11.93;2.38;;;8.10;99.90;;;;;;5059636;28;20056;-67
2021/11/21 09:23:11;;;;;;;12.02;1.45;;;8.20;99.90;;;;;;5059699;28;20059;-67
2021/11/21 09:25:38;;;;;;;16.52;1.67;;;8.20;99.90;;;;;;5062833;28;20494;-67
2021/11/21 09:28:05;;;;;;;14.38;1.67;;;8.30;99.90;;;;;;5063052;28;20032;-67
2021/11/21 09:30:31;;;;;;;10.60;1.20;;;8.40;99.90;;;;;;5061345;28;20089;-67
2021/11/21 09:32:57;;;;;;;13.35;1.27;;;8.50;99.90;;;;;;5062039;28;20433;-67
2021/11/21 09:35:23;;;;;;;10.10;1.10;;;8.60;99.90;;;;;;5058046;28;20038;-67
2021/11/21 09:37:49;;;;;;;9.68;1.10;;;8.70;99.90;;;;;;5060732;28;20041;-67
2021/11/21 09:40:15;;;;;;;16.50;2.35;;;8.80;99.90;;;;;;5062432;28;20127;-67
2021/11/21 09:42:42;;;;;;;9.18;1.55;;;8.80;99.90;;;;;;5059048;28;20154;-67
2021/11/21 09:45:10;;;;;;;17.67;2.05;;;8.80;99.90;;;;;;5062470;28;20063;-67
2021/11/21 09:47:36;;;;;;;10.75;1.70;;;8.90;99.90;;;;;;5061996;28;20126;-67
2021/11/21 09:50:06;;;;;;;14.27;1.58;;;8.90;99.90;;;;;;5058352;28;20188;-67
2021/11/21 09:52:32;;;;;;;7.97;1.10;;;9.00;99.90;;;;;;5062970;28;20517;-67
2021/11/21 09:54:58;;;;;;;13.55;1.42;;;9.00;99.90;;;;;;5059562;28;20049;-67
2021/11/21 09:57:24;;;;;;;8.32;1.23;;;9.10;99.90;;;;;;5060936;28;20029;-67
2021/11/21 09:59:59;;;;;;;13.82;1.08;;;9.10;99.90;;;;;;5061637;28;20079;-67
2021/11/21 10:02:39;;;;;;;11.63;1.10;;;9.20;99.90;;;;;;5059487;28;20053;-67
2021/11/21 10:05:08;;;;;;;9.93;1.10;;;9.30;99.90;;;;;;5063628;28;20086;-67
2021/11/21 10:07:36;;;;;;;20.15;1.92;;;9.40;99.90;;;;;;5063379;28;20131;-67
2021/11/21 10:10:06;;;;;;;18.33;0.98;;;9.50;99.90;;;;;;5057432;28;21407;-67
2021/11/21 10:12:43;;;;;;;13.20;1.35;;;9.50;99.90;;;;;;5056260;28;20570;-67
2021/11/21 10:15:12;;;;;;;10.07;1.17;;;9.50;99.90;;;;;;5050121;28;20047;-67
2021/11/21 10:17:40;;;;;;;17.95;1.67;;;9.50;99.90;;;;;;5047295;28;20048;-67
2021/11/21 10:20:16;;;;;;;11.80;1.23;;;9.60;99.90;;;;;;5047504;28;20052;-67
2021/11/21 10:22:45;;;;;;;11.98;1.25;;;9.60;99.90;;;;;;5051007;28;20048;-67
2021/11/21 10:25:11;;;;;;;7.32;1.77;;;9.60;99.90;;;;;;5062889;28;20044;-68
2021/11/21 10:27:37;;;;;;;8.48;1.00;;;9.60;99.90;;;;;;5062083;28;20399;-67
2021/11/21 10:30:03;;;;;;;16.20;2.13;;;9.60;99.90;;;;;;5060469;28;20044;-67
2021/11/21 10:32:31;;;;;;;9.30;1.05;;;9.70;99.90;;;;;;5064371;28;20036;-67
2021/11/21 10:35:02;;;;;;;6.38;1.00;;;9.80;99.90;;;;;;5060953;28;20068;-67
2021/11/21 10:37:31;;;;;;;9.07;1.00;;;9.80;99.90;;;;;;5060413;28;20049;-67
2021/11/21 10:40:16;;;;;;;9.63;1.27;;;9.80;99.90;;;;;;5052600;28;20521;-67
2021/11/21 10:42:46;;;;;;;7.50;0.93;;;9.90;99.90;;;;;;5049652;28;20074;-67
2021/11/21 10:45:14;;;;;;;8.10;1.05;;;9.90;99.90;;;;;;5050361;28;20040;-67
2021/11/21 10:47:57;;;;;;;10.60;1.48;;;10.00;99.90;;;;;;5052910;28;20371;-67
2021/11/21 10:50:32;;;;;;;9.77;1.00;;;9.90;99.90;;;;;;5078770;28;20696;-67
2021/11/21 10:53:01;;;;;;;9.68;1.10;;;10.00;99.90;;;;;;5050368;28;20053;-68
2021/11/21 10:55:26;;;;;;;10.23;1.48;;;10.00;99.90;;;;;;5050037;28;20048;-67
2021/11/21 10:57:52;;;;;;;8.07;1.58;;;10.10;99.90;;;;;;5053118;28;20113;-68
2021/11/21 11:00:26;;;;;;;12.20;2.15;;;10.30;99.90;;;;;;5049146;28;20040;-68
2021/11/21 11:02:53;;;;;;;9.40;1.27;;;10.40;99.90;;;;;;5053986;28;20051;-67
2021/11/21 11:05:23;;;;;;;5.78;0.80;;;10.60;99.90;;;;;;5048255;28;20180;-68
2021/11/21 11:07:53;;;;;;;7.05;0.88;;;10.90;99.90;;;;;;5047812;28;20719;-68
2021/11/21 11:10:28;;;;;;;8.52;1.15;;;11.20;99.90;;;;;;5050789;28;20032;-68
2021/11/21 11:12:58;;;;;;;6.75;1.38;;;11.30;99.90;;;;;;5050126;28;20548;-68
2021/11/21 11:15:25;;;;;;;8.23;1.00;;;11.60;99.90;;;;;;5050725;28;20040;-68
2021/11/21 11:17:51;;;;;;;6.15;0.85;;;11.70;99.90;;;;;;5047699;28;20059;-68
2021/11/21 11:20:19;;;;;;;4.38;0.80;;;11.70;99.90;;;;;;5045491;28;20682;-68
2021/11/21 11:22:46;;;;;;;6.85;0.85;;;11.70;99.90;;;;;;5058079;28;20091;-68
2021/11/21 11:25:23;;;;;;;3.63;0.63;;;11.50;99.90;;;;;;5063015;28;20056;-68
2021/11/21 11:28:04;;;;;;;5.45;0.63;;;11.40;99.90;;;;;;5067934;28;20048;-68
2021/11/21 11:30:33;;;;;;;8.73;0.93;;;11.20;99.90;;;;;;5053931;28;20131;-68
2021/11/21 11:33:11;;;;;;;5.97;0.90;;;11.00;99.90;;;;;;5063698;28;20502;-68
2021/11/21 11:35:43;;;;;;;8.70;0.77;;;11.00;99.90;;;;;;5057203;28;20121;-67
2021/11/21 11:38:15;;;;;;;9.68;1.55;;;10.90;99.90;;;;;;5056055;28;20050;-68
2021/11/21 11:40:57;;;;;;;7.70;1.30;;;10.80;99.90;;;;;;5040410;28;20047;-67
2021/11/21 11:43:30;;;;;;;4.82;0.60;;;10.70;99.90;;;;;;5062102;28;20055;-67
2021/11/21 11:46:00;;;;;;;7.80;0.77;;;10.60;99.90;;;;;;5060963;28;20036;-67
2021/11/21 11:48:39;;;;;;;4.63;0.80;;;10.70;99.90;;;;;;5060157;28;20057;-67
2021/11/21 11:51:10;;;;;;;7.15;0.70;;;10.60;99.90;;;;;;5060643;28;20128;-67
2021/11/21 11:53:53;;;;;;;8.52;0.90;;;10.60;99.90;;;;;;5060894;28;20630;-67
2021/11/21 11:56:26;;;;;;;8.85;0.60;;;10.50;99.90;;;;;;5059539;28;20058;-67
2021/11/21 11:59:01;;;;;;;7.70;1.00;;;10.50;99.90;;;;;;5061794;28;20036;-67
2021/11/21 12:04:03;;;;;;;6.27;0.97;;;10.60;99.90;;;;;;5056825;28;20138;-67
2021/11/21 12:06:54;;;;;;;9.13;0.90;;;10.80;99.90;;;;;;5062309;28;20045;-67
2021/11/21 12:09:26;;;;;;;7.00;1.05;;;11.00;99.90;;;;;;5043784;28;20053;-67
2021/11/21 12:12:01;;;;;;;4.10;0.68;;;10.90;99.90;;;;;;5061096;28;20048;-67
2021/11/21 12:14:29;;;;;;;2.07;0.23;;;10.80;99.90;;;;;;5090580;27;20037;-67
2021/11/21 12:17:01;;;;;;;11.80;1.10;;;10.70;99.90;;;;;;5062154;28;20483;-67
2021/11/21 12:19:49;;;;;;;3.60;0.47;;;10.60;99.90;;;;;;5058577;28;20052;-67
2021/11/21 12:22:25;;;;;;;2.10;0.20;;;10.40;99.90;;;;;;5062367;28;20151;-67
2021/11/21 12:25:01;;;;;;;4.28;0.52;;;10.20;99.90;;;;;;5058441;28;20055;-67
2021/11/21 12:27:32;;;;;;;;;;;10.20;99.90;;;;;;5061061;28;20055;-67
2021/11/21 12:30:18;;;;;;;3.50;0.68;;;10.00;99.90;;;;;;5090920;28;20325;-67
2021/11/21 12:32:49;;;;;;;3.03;0.50;;;10.00;99.90;;;;;;5092914;28;20041;-67
2021/11/21 12:35:22;;;;;;;6.28;0.55;;;9.90;99.90;;;;;;5057218;28;20052;-67
2021/11/21 12:37:49;;;;;;;1.20;0.10;;;9.90;99.90;;;;;;5063656;28;20040;-67
2021/11/21 12:40:23;;;;;;;5.25;0.17;;;9.80;99.90;;;;;;5060146;28;20036;-68
2021/11/21 12:42:59;;;;;;;3.53;0.30;;;9.80;99.90;;;;;;5062091;28;20057;-67
2021/11/21 12:45:31;;;;;;;4.00;0.40;;;9.80;99.90;;;;;;5058647;28;20131;-68
2021/11/21 12:48:01;;;;;;;2.40;0.30;;;9.80;99.90;;;;;;5057942;28;20063;-67
2021/11/21 12:50:34;;;;;;;2.20;0.40;;;9.80;99.90;;;;;;5056909;28;20036;-68
2021/11/21 12:53:04;;;;;;;3.33;0.63;;;9.90;99.90;;;;;;5060152;28;20525;-67